createdAt,value
2018-06-05T09:03:04.049Z,28.30
2018-06-05T09:05:33.388Z,19.10
2018-06-05T09:08:06.973Z,19.10
2018-06-05T09:13:22.890Z,19.10
2018-06-05T09:18:35.469Z,19.10
2018-06-05T09:21:07.019Z,19.40
2018-06-05T09:23:35.833Z,19.40
2018-06-05T09:26:07.966Z,19.30
2018-06-05T09:31:33.849Z,19.50
2018-06-05T09:34:06.549Z,19.60
2018-06-05T09:39:33.731Z,19.80
2018-06-05T09:42:06.909Z,19.80
2018-06-05T09:44:34.760Z,20.00
2018-06-05T09:47:05.695Z,20.00
2018-06-05T09:49:33.693Z,20.00
2018-06-05T09:52:06.837Z,20.20
2018-06-05T09:54:35.901Z,20.30
2018-06-05T10:00:09.400Z,20.40
2018-06-05T10:02:37.303Z,20.60
2018-06-05T10:05:05.469Z,20.90
2018-06-05T10:07:36.807Z,20.90
2018-06-05T10:10:05.022Z,21.10
2018-06-05T10:12:34.301Z,21.20
2018-06-05T10:15:02.126Z,21.30
2018-06-05T10:20:06.769Z,21.30
2018-06-05T10:22:34.973Z,21.50
2018-06-05T10:25:02.874Z,21.60
2018-06-05T10:27:30.684Z,21.90
2018-06-05T10:30:04.720Z,22.30
2018-06-05T10:32:32.446Z,22.30
2018-06-05T10:35:00.487Z,22.10
2018-06-05T10:37:28.530Z,22.20
2018-06-05T10:39:56.218Z,22.30
2018-06-05T10:42:23.978Z,22.30
2018-06-05T10:47:35.938Z,22.70
2018-06-05T10:50:05.653Z,22.90
2018-06-05T10:55:05.066Z,23.50
2018-06-05T11:00:31.081Z,23.40
2018-06-05T11:03:02.925Z,23.90
2018-06-05T11:05:31.663Z,23.90
2018-06-05T11:08:05.923Z,23.70
2018-06-05T11:10:36.814Z,24.10
2018-06-05T11:13:05.290Z,24.30
2018-06-05T11:18:19.766Z,23.70
2018-06-05T11:20:52.968Z,23.50
2018-06-05T11:23:20.993Z,23.50
2018-06-05T11:25:55.653Z,23.80
2018-06-05T11:28:23.466Z,24.00
2018-06-05T11:30:51.374Z,23.70
2018-06-05T11:33:35.082Z,24.00
2018-06-05T11:36:05.490Z,24.10
2018-06-05T11:38:38.556Z,24.10
2018-06-05T11:41:06.874Z,24.20
2018-06-05T11:43:35.527Z,24.30
2018-06-05T11:46:05.190Z,24.60
2018-06-05T11:49:03.740Z,24.90
2018-06-05T11:51:33.992Z,25.00
2018-06-05T11:54:04.447Z,25.10
2018-06-05T11:56:34.845Z,24.90
2018-06-05T11:59:34.201Z,25.10
2018-06-05T12:02:05.547Z,25.40
2018-06-05T12:04:34.581Z,25.30
2018-06-05T12:07:05.685Z,24.80
2018-06-05T12:09:36.409Z,25.10
2018-06-05T12:12:05.797Z,25.30
2018-06-05T12:14:43.783Z,25.40
2018-06-05T12:17:35.157Z,25.60
2018-06-05T12:20:33.985Z,25.70
2018-06-05T12:23:02.749Z,25.70
2018-06-05T12:28:02.441Z,25.70
2018-06-05T12:30:37.610Z,25.70
2018-06-05T12:33:05.474Z,25.70
2018-06-05T12:41:01.498Z,25.60
2018-06-05T12:43:32.397Z,25.70
2018-06-05T12:55:22.757Z,26.60
2018-06-05T12:58:35.409Z,26.40
2018-06-05T13:01:11.714Z,26.70
2018-06-05T13:06:36.380Z,26.70
2018-06-05T13:09:06.179Z,26.70
2018-06-05T13:14:21.120Z,26.10
2018-06-05T13:16:52.063Z,26.50
2018-06-05T13:34:08.789Z,26.50
2018-06-05T16:49:30.836Z,24.40
2018-06-05T16:52:36.117Z,24.50
2018-06-05T17:09:36.521Z,24.20
2018-06-05T17:12:05.330Z,24.20
2018-06-05T17:18:37.012Z,24.00
